Home > Products > Valid Products > TAF

000
FTUS42 KKEY 301120
TAFEYW
TAF
KEYW 301120Z 3012/3112 02008KT P6SM SCT050
     FM301500 01009KT P6SM FEW050
     FM310900 04011KT P6SM FEW030 SCT080=



000
FTUS42 KKEY 301120
TAFMTH
TAF
KMTH 301120Z 3012/3112 01007KT P6SM SCT050
     FM301500 36008KT P6SM FEW050
     FM310900 04010KT P6SM FEW030 SCT080=



000
FTUS42 KKEY 301120
TAFEYW
TAF
KEYW 301120Z 3012/3112 02008KT P6SM SCT050
     FM301500 01009KT P6SM FEW050
     FM310900 04011KT P6SM FEW030 SCT080=



000
FTUS42 KKEY 300859 AAA
TAFEYW
TAF AMD
KEYW 300859Z 3009/3106 02007KT P6SM SCT050
     FM301500 01008KT P6SM FEW050=



000
FTUS42 KKEY 300859 AAA
TAFEYW
TAF AMD
KEYW 300859Z 3009/3106 02007KT P6SM SCT050
     FM301500 01008KT P6SM FEW050=



000
FTUS42 KKEY 300858 AAA
TAFMTH
TAF AMD
KMTH 300858Z 3009/3106 03006KT P6SM SCT050
     FM301500 36007KT P6SM FEW050=



000
FTUS42 KKEY 300527
TAFMTH
TAF
KMTH 300527Z 3006/3106 04006KT P6SM BKN045
     FM301200 03006KT P6SM SCT045
     FM301500 36007KT P6SM FEW045=



000
FTUS42 KKEY 300527
TAFEYW
TAF
KEYW 300527Z 3006/3106 03006KT P6SM BKN045
     FM301200 02007KT P6SM SCT045
     FM301500 01008KT P6SM FEW045=



000
FTUS42 KKEY 300527
TAFEYW
TAF
KEYW 300527Z 3006/3106 03006KT P6SM BKN045
     FM301200 02007KT P6SM SCT045
     FM301500 01008KT P6SM FEW045=



000
FTUS42 KKEY 300346 AAB
TAFMTH
TAF AMD
KMTH 300346Z 3004/3024 04011KT P6SM SCT045
      TEMPO 3004/3007 BKN045
     FM300700 05005KT P6SM SKC
     FM301400 01007KT P6SM FEW045=



000
FTUS42 KKEY 300345 AAB
TAFEYW
TAF AMD
KEYW 300345Z 3004/3024 06010KT P6SM SCT045
      TEMPO 3004/3008 BKN045
     FM301000 01005KT P6SM SKC
     FM301500 01009KT P6SM SKC=



000
FTUS42 KKEY 300345 AAB
TAFEYW
TAF AMD
KEYW 300345Z 3004/3024 06010KT P6SM SCT045
      TEMPO 3004/3008 BKN045
     FM301000 01005KT P6SM SKC
     FM301500 01009KT P6SM SKC=



000
FTUS42 KKEY 300234 AAA
TAFEYW
TAF AMD
KEYW 300234Z 3003/3024 05009KT P6SM SCT045
      TEMPO 3003/3006 BKN045
     FM301000 01005KT P6SM SKC
     FM301500 01009KT P6SM SKC=



000
FTUS42 KKEY 300234 AAA
TAFEYW
TAF AMD
KEYW 300234Z 3003/3024 05009KT P6SM SCT045
      TEMPO 3003/3006 BKN045
     FM301000 01005KT P6SM SKC
     FM301500 01009KT P6SM SKC=



000
FTUS42 KKEY 300019 AAA
TAFMTH
TAF AMD
KMTH 300019Z 3000/3024 05011KT P6SM FEW045
      TEMPO 3000/3004 BKN045
     FM300700 05005KT P6SM SKC
     FM301400 01007KT P6SM FEW045=



000
FTUS42 KKEY 292320
TAFMTH
TAF
KMTH 292320Z 3000/3024 05009KT P6SM SKC
     FM300700 05005KT P6SM SKC
     FM301400 01007KT P6SM FEW045=



000
FTUS42 KKEY 292320
TAFEYW
TAF
KEYW 292320Z 3000/3024 05009KT P6SM SKC
     FM301000 01005KT P6SM SKC
     FM301500 01009KT P6SM SKC=



000
FTUS42 KKEY 292320
TAFEYW
TAF
KEYW 292320Z 3000/3024 05009KT P6SM SKC
     FM301000 01005KT P6SM SKC
     FM301500 01009KT P6SM SKC=



000
FTUS42 KKEY 292011 AAA
TAFEYW
TAF AMD
KEYW 292011Z 2920/3018 07011G17KT P6SM SKC
     FM300100 05008KT P6SM SKC=



000
FTUS42 KKEY 292011 AAA
TAFEYW
TAF AMD
KEYW 292011Z 2920/3018 07011G17KT P6SM SKC
     FM300100 05008KT P6SM SKC=



000
FTUS42 KKEY 291743
TAFEYW
TAF
KEYW 291743Z 2918/3018 05010G17KT P6SM SKC
     FM300300 05008KT P6SM SKC=



000
FTUS42 KKEY 291743
TAFMTH
TAF
KMTH 291743Z 2918/3018 03012KT P6SM SKC
     FM300300 03008KT P6SM SKC=



000
FTUS42 KKEY 291743
TAFEYW
TAF
KEYW 291743Z 2918/3018 05010G17KT P6SM SKC
     FM300300 05008KT P6SM SKC=



000
FTUS42 KKEY 291445 AAA
TAFEYW
TAF AMD
KEYW 291445Z 2915/3012 04011KT P6SM SKC
     FM291700 07012G18KT P6SM FEW050
     FM300300 05008KT P6SM SKC=



000
FTUS42 KKEY 291445 AAA
TAFEYW
TAF AMD
KEYW 291445Z 2915/3012 04011KT P6SM SKC
     FM291700 07012G18KT P6SM FEW050
     FM300300 05008KT P6SM SKC=



000
FTUS42 KKEY 291126
TAFEYW
TAF
KEYW 291126Z 2912/3012 03011G20KT P6SM FEW050
     FM291800 06012G18KT P6SM FEW050
     FM300300 05008KT P6SM SKC=



000
FTUS42 KKEY 291126
TAFMTH
TAF
KMTH 291126Z 2912/3012 03011G18KT P6SM SCT050
     FM291800 03010KT P6SM FEW050
     FM300300 03008KT P6SM SKC=



000
FTUS42 KKEY 291126
TAFEYW
TAF
KEYW 291126Z 2912/3012 03011G20KT P6SM FEW050
     FM291800 06012G18KT P6SM FEW050
     FM300300 05008KT P6SM SKC=



000
FTUS42 KKEY 290846 AAB
TAFEYW
TAF AMD
KEYW 290846Z 2909/3006 03008G15KT P6SM SKC
     FM291800 07012G18KT P6SM FEW050
     FM300300 05008KT P6SM SKC=



000
FTUS42 KKEY 290846 AAB
TAFEYW
TAF AMD
KEYW 290846Z 2909/3006 03008G15KT P6SM SKC
     FM291800 07012G18KT P6SM FEW050
     FM300300 05008KT P6SM SKC=



000
FTUS42 KKEY 290846 AAB
TAFMTH
TAF AMD
KMTH 290846Z 2909/3006 03010G18KT P6SM SCT050
     FM291800 04010KT P6SM FEW050=



000
FTUS42 KKEY 290725 AAA
TAFEYW
TAF AMD
KEYW 290725Z 2907/3006 03007KT P6SM SKC
     FM291800 07012G18KT P6SM FEW040
     FM300300 05008KT P6SM SKC=



000
FTUS42 KKEY 290725 AAA
TAFMTH
TAF AMD
KMTH 290725Z 2907/3006 03010G18KT P6SM FEW050
     FM291800 04010KT P6SM FEW040=



000
FTUS42 KKEY 290725 AAA
TAFEYW
TAF AMD
KEYW 290725Z 2907/3006 03007KT P6SM SKC
     FM291800 07012G18KT P6SM FEW040
     FM300300 05008KT P6SM SKC=



000
FTUS42 KKEY 290537
TAFEYW
TAF
KEYW 290537Z 2906/3006 04010G18KT P6SM SKC
     FM291800 07012G18KT P6SM FEW035
     FM300300 05008KT P6SM SKC=



000
FTUS42 KKEY 290537
TAFMTH
TAF
KMTH 290537Z 2906/3006 03010G18KT P6SM SKC
     FM291800 04010KT P6SM FEW035=



000
FTUS42 KKEY 290537
TAFEYW
TAF
KEYW 290537Z 2906/3006 04010G18KT P6SM SKC
     FM291800 07012G18KT P6SM FEW035
     FM300300 05008KT P6SM SKC=



000
FTUS42 KKEY 282338
TAFEYW
TAF
KEYW 282338Z 2900/2924 36012G18KT P6SM SKC
     FM290900 04012KT P6SM SKC
     FM291800 07012KT P6SM FEW035=



000
FTUS42 KKEY 282338
TAFEYW
TAF
KEYW 282338Z 2900/2924 36012G18KT P6SM SKC
     FM290900 04012KT P6SM SKC
     FM291800 07012KT P6SM FEW035=



000
FTUS42 KKEY 282338
TAFMTH
TAF
KMTH 282338Z 2900/2924 35010G15KT P6SM SKC
     FM290900 04012KT P6SM SKC
     FM291800 07012KT P6SM FEW035=



000
FTUS42 KKEY 281735
TAFEYW
TAF
KEYW 281735Z 2818/2918 02011G16KT P6SM SKC=



000
FTUS42 KKEY 281735
TAFMTH
TAF
KMTH 281735Z 2818/2918 01010G15KT P6SM SKC=



000
FTUS42 KKEY 281735
TAFEYW
TAF
KEYW 281735Z 2818/2918 02011G16KT P6SM SKC=



000
FTUS42 KKEY 281502 AAA
TAFEYW
TAF AMD
KEYW 281502Z 2815/2912 01011G18KT P6SM SKC
     FM282000 02010KT P6SM SKC=



000
FTUS42 KKEY 281502 AAA
TAFEYW
TAF AMD
KEYW 281502Z 2815/2912 01011G18KT P6SM SKC
     FM282000 02010KT P6SM SKC=



000
FTUS42 KKEY 281124
TAFEYW
TAF
KEYW 281124Z 2812/2912 36014G24KT P6SM FEW040
     FM282000 01010KT P6SM SKC=



000
FTUS42 KKEY 281124
TAFMTH
TAF
KMTH 281124Z 2812/2912 01012G22KT P6SM FEW040
     FM282000 01010KT P6SM SKC=



000
FTUS42 KKEY 281124
TAFEYW
TAF
KEYW 281124Z 2812/2912 36014G24KT P6SM FEW040
     FM282000 01010KT P6SM SKC=



000
FTUS42 KKEY 280852 AAA
TAFMTH
TAF AMD
KMTH 280852Z 2809/2906 30009KT P6SM FEW030
     FM281200 36012G20KT P6SM SKC
     FM282000 01010KT P6SM SKC=



000
FTUS42 KKEY 280852 AAA
TAFEYW
TAF AMD
KEYW 280852Z 2809/2906 31011KT P6SM FEW030
     FM281200 36013G22KT P6SM SKC
     FM282000 01010KT P6SM SKC=



000
FTUS42 KKEY 280852 AAA
TAFEYW
TAF AMD
KEYW 280852Z 2809/2906 31011KT P6SM FEW030
     FM281200 36013G22KT P6SM SKC
     FM282000 01010KT P6SM SKC=



000
FTUS42 KKEY 280530
TAFEYW
TAF
KEYW 280530Z 2806/2906 31011KT P6SM FEW030
     FM281400 36013G22KT P6SM SKC
     FM282000 01010KT P6SM SKC=



000
FTUS42 KKEY 280530
TAFMTH
TAF
KMTH 280530Z 2806/2906 30009KT P6SM FEW030
     FM281400 36012G20KT P6SM SKC
     FM282000 01010KT P6SM SKC=



000
FTUS42 KKEY 280530
TAFEYW
TAF
KEYW 280530Z 2806/2906 31011KT P6SM FEW030
     FM281400 36013G22KT P6SM SKC
     FM282000 01010KT P6SM SKC=



000
FTUS42 KKEY 272338
TAFEYW
TAF
KEYW 272338Z 2800/2824 31011KT P6SM FEW035
     FM280900 34013G23KT P6SM FEW025
     FM281500 36011KT P6SM SKC=



000
FTUS42 KKEY 272338
TAFMTH
TAF
KMTH 272338Z 2800/2824 32007KT P6SM SKC
     FM280200 35012G20KT P6SM FEW025
     FM281500 36011KT P6SM SKC=



000
FTUS42 KKEY 272338
TAFEYW
TAF
KEYW 272338Z 2800/2824 31011KT P6SM FEW035
     FM280900 34013G23KT P6SM FEW025
     FM281500 36011KT P6SM SKC=



000
FTUS42 KKEY 271745
TAFEYW
TAF
KEYW 271745Z 2718/2818 34011KT P6SM SCT040
     FM280600 35013G23KT P6SM FEW025=



000
FTUS42 KKEY 271745
TAFMTH
TAF
KMTH 271745Z 2718/2818 32007KT P6SM SKC
     FM280200 35012G20KT P6SM FEW025=



000
FTUS42 KKEY 271745
TAFEYW
TAF
KEYW 271745Z 2718/2818 34011KT P6SM SCT040
     FM280600 35013G23KT P6SM FEW025=



000
FTUS42 KKEY 271510 AAA
TAFEYW
TAF AMD
KEYW 271510Z 2715/2812 33011G17KT P6SM SCT040
     FM272000 33011KT P6SM FEW035
     FM280600 35013G23KT P6SM SKC=



000
FTUS42 KKEY 271510 AAA
TAFEYW
TAF AMD
KEYW 271510Z 2715/2812 33011G17KT P6SM SCT040
     FM272000 33011KT P6SM FEW035
     FM280600 35013G23KT P6SM SKC=



    US Dept of Commerce
    National Oceanic and Atmospheric Administration
    National Weather Service
    1325 East West Highway
    Silver Spring, MD 20910
    Page Author: NWS Internet Services Team
Disclaimer
Information Quality
Credits
Glossary
Privacy Policy
Freedom of Information Act (FOIA)
About Us
Career Opportunities